CheckWX is a tool to help pilots better visualize weather data.  It is not intended as a substitute for an official pre-flight weather briefing.

23:02:14 UTC

UHMM METAR
Sokol Airport
Magadan, Russian Federation
Current

32 mins ago

UHMM 192230Z 12002MPS 090V180 4900 -DZ BR OVC006 11/11 Q1009 R10/290255 NOSIG RMK MT OBSC QFE742
Observed
Jul-19 @ 22:30 UTC
Wind
  • 120° at 4 KTS
Visibility
4,900 meters
Flight Rules
IFR
Conditions
Light Drizzle, Mist
Cloud Levels
  • Overcast at 600' AGL
Temperature
11°C / 52°F
Dewpoint
11°C / 52°F
Humidity
100%
Altimeter
29.79" Hg
Pressure
1008.92 hPa
Previous

1 hour ago

UHMM 192200Z 12002MPS 5000 -DZ BR OVC009 11/11 Q1009 R10/290255 NOSIG RMK MT OBSC QFE742
Observed
Jul-19 @ 22:00 UTC
Wind
  • 120° at 4 KTS
Visibility
5,000 meters
Flight Rules
IFR
Conditions
Light Drizzle, Mist
Cloud Levels
  • Overcast at 900' AGL
Temperature
11°C / 52°F
Dewpoint
11°C / 52°F
Humidity
100%
Altimeter
29.79" Hg
Pressure
1008.92 hPa
Previous

2 hours ago

UHMM 192100Z 09004MPS 4100 -DZ BR BKN009 OVC022 11/11 Q1009 RMK MT OBSC QFE742
Observed
Jul-19 @ 21:00 UTC
Wind
  • 090° at 8 KTS
Visibility
4,100 meters
Flight Rules
IFR
Conditions
Light Drizzle, Mist
Cloud Levels
  • Broken at 900' AGL
  • Overcast at 2,200' AGL
Temperature
11°C / 52°F
Dewpoint
11°C / 52°F
Humidity
100%
Altimeter
29.79" Hg
Pressure
1008.92 hPa